Time;durP1;ratioP1;P1;durP2;ratioP2;P2;SDS_P1;SDS_P2;PMS_P1;PMS_P2;Temp;Humidity;BMP_temperature;BMP_pressure;BME280_temperature;BME280_humidity;BME280_pressure;Samples;Min_cycle;Max_cycle;Signal;HPM_P1;HPM_P2
2021/12/18 00:02:22;;;;;;;17.03;12.00;;;4.80;99.90;;;;;;5020096;28;20207;-50
2021/12/18 00:04:48;;;;;;;19.13;12.27;;;4.90;99.90;;;;;;5019915;28;20180;-50
2021/12/18 00:07:13;;;;;;;18.87;12.90;;;5.00;99.90;;;;;;5020207;28;20221;-51
2021/12/18 00:09:40;;;;;;;17.13;12.90;;;5.10;99.90;;;;;;5022036;28;20168;-51
2021/12/18 00:12:07;;;;;;;17.10;11.97;;;5.20;99.90;;;;;;5021661;28;20195;-51
2021/12/18 00:14:33;;;;;;;16.53;11.40;;;5.30;99.90;;;;;;5022794;28;20521;-48
2021/12/18 00:16:58;;;;;;;15.90;11.33;;;5.30;99.90;;;;;;5021914;28;20195;-52
2021/12/18 00:19:26;;;;;;;17.13;11.27;;;5.30;99.90;;;;;;5020506;28;20291;-51
2021/12/18 00:21:53;;;;;;;16.73;12.83;;;5.30;99.90;;;;;;5020581;28;20212;-53
2021/12/18 00:24:19;;;;;;;15.53;11.50;;;5.20;99.90;;;;;;5022072;28;20647;-51
2021/12/18 00:26:45;;;;;;;19.13;12.60;;;5.00;99.90;;;;;;5020403;28;20545;-54
2021/12/18 00:29:11;;;;;;;19.60;13.40;;;5.00;99.90;;;;;;5021218;28;20211;-52
2021/12/18 00:31:36;;;;;;;18.30;12.07;;;4.90;99.90;;;;;;5021857;28;20228;-51
2021/12/18 00:34:02;;;;;;;17.07;12.57;;;4.90;99.90;;;;;;5019958;28;20179;-55
2021/12/18 00:36:27;;;;;;;17.97;12.87;;;4.90;99.90;;;;;;5021642;28;20183;-50
2021/12/18 00:38:53;;;;;;;18.43;12.97;;;5.00;99.90;;;;;;5021932;28;20191;-54
2021/12/18 00:44:03;;;;;;;20.17;13.70;;;4.90;99.90;;;;;;5024069;28;20546;-52
2021/12/18 00:46:32;;;;;;;18.53;13.70;;;4.70;99.90;;;;;;5032226;28;20735;-52
2021/12/18 00:48:57;;;;;;;22.60;14.10;;;4.50;99.90;;;;;;5035460;28;20179;-50
2021/12/18 00:51:24;;;;;;;21.43;15.00;;;4.50;99.90;;;;;;5034918;28;20513;-53
2021/12/18 00:53:49;;;;;;;21.73;14.10;;;4.50;99.90;;;;;;5035302;28;20164;-55
2021/12/18 00:56:15;;;;;;;20.63;14.20;;;4.50;99.90;;;;;;5034815;28;20183;-50
2021/12/18 00:58:41;;;;;;;22.53;15.33;;;4.50;99.90;;;;;;5035185;28;20171;-50
2021/12/18 01:01:09;;;;;;;20.60;14.70;;;4.30;99.90;;;;;;5034864;28;20207;-53
2021/12/18 01:03:37;;;;;;;20.57;14.13;;;4.20;99.90;;;;;;5035059;28;20187;-50
2021/12/18 01:06:03;;;;;;;21.20;14.67;;;4.10;99.90;;;;;;5034591;28;20633;-54
2021/12/18 01:08:29;;;;;;;19.80;14.23;;;4.20;99.90;;;;;;5034947;28;20196;-54
2021/12/18 01:13:25;;;;;;;25.17;14.43;;;4.20;99.90;;;;;;5034698;28;20187;-50
2021/12/18 01:15:54;;;;;;;21.40;15.23;;;4.10;99.90;;;;;;5034720;28;20649;-50
2021/12/18 01:23:48;;;;;;;21.07;13.93;;;4.30;99.90;;;;;;5034455;28;20683;-50
2021/12/18 01:26:14;;;;;;;20.20;14.27;;;4.30;99.90;;;;;;5016798;28;20172;-53
2021/12/18 01:28:40;;;;;;;23.30;15.50;;;4.30;99.90;;;;;;5034627;28;20715;-55
2021/12/18 01:31:06;;;;;;;20.80;14.70;;;4.30;99.90;;;;;;5034395;28;20172;-54
2021/12/18 01:33:32;;;;;;;21.03;14.13;;;4.40;99.90;;;;;;5034520;28;20211;-50
2021/12/18 01:36:00;;;;;;;24.37;16.67;;;3.60;99.90;;;;;;5034085;28;20245;-50
2021/12/18 01:38:28;;;;;;;19.47;14.50;;;4.30;99.90;;;;;;5034636;28;20195;-50
2021/12/18 01:40:54;;;;;;;20.47;13.83;;;4.30;99.90;;;;;;5034159;28;20218;-48
2021/12/18 01:51:21;;;;;;;20.43;14.07;;;4.20;99.90;;;;;;5033818;28;20663;-50
2021/12/18 01:53:49;;;;;;;21.03;15.03;;;4.10;99.90;;;;;;5034043;28;20179;-50
2021/12/18 01:56:15;;;;;;;20.60;14.30;;;4.10;99.90;;;;;;5033947;28;20199;-51
2021/12/18 01:58:44;;;;;;;22.83;15.50;;;4.00;99.90;;;;;;5033812;28;20182;-52
2021/12/18 02:01:10;;;;;;;22.87;14.63;;;4.00;99.90;;;;;;5033977;28;20202;-55
2021/12/18 02:03:35;;;;;;;21.50;14.27;;;3.90;99.90;;;;;;5033707;28;20751;-51
2021/12/18 02:06:01;;;;;;;20.67;14.37;;;3.90;99.90;;;;;;5033773;28;20179;-50
2021/12/18 02:08:27;;;;;;;21.60;14.53;;;3.90;99.90;;;;;;5033679;28;20175;-52
2021/12/18 02:11:00;;;;;;;19.80;14.10;;;3.90;99.90;;;;;;5033851;28;20172;-49
2021/12/18 02:21:43;;;;;;;22.63;15.40;;;4.00;99.90;;;;;;4952916;28;20226;-49
2021/12/18 02:24:09;;;;;;;21.60;14.23;;;4.10;99.90;;;;;;4953136;29;20202;-50
2021/12/18 02:26:34;;;;;;;21.07;15.53;;;4.20;99.90;;;;;;4952714;29;20683;-50
2021/12/18 02:29:03;;;;;;;21.40;14.33;;;4.30;99.90;;;;;;4953321;29;20198;-51
2021/12/18 02:31:29;;;;;;;23.13;15.70;;;4.30;99.90;;;;;;4952722;28;20175;-53
2021/12/18 02:33:56;;;;;;;22.77;15.53;;;4.50;99.90;;;;;;4953037;29;20198;-51
2021/12/18 02:36:24;;;;;;;21.53;14.30;;;4.50;99.90;;;;;;4952678;29;20699;-50
2021/12/18 02:44:01;;;;;;;23.23;16.07;;;4.60;99.90;;;;;;4952537;29;20221;-51
2021/12/18 02:46:27;;;;;;;23.73;16.20;;;4.70;99.90;;;;;;4952657;28;20746;-51
2021/12/18 02:48:55;;;;;;;20.43;14.47;;;4.70;99.90;;;;;;4952521;29;20202;-51
2021/12/18 02:51:21;;;;;;;22.43;15.20;;;4.70;99.90;;;;;;4952599;28;20194;-50
2021/12/18 02:53:51;;;;;;;21.23;14.97;;;4.80;99.90;;;;;;4952405;28;20179;-50
2021/12/18 02:56:19;;;;;;;18.97;13.40;;;4.80;99.90;;;;;;4952369;28;20682;-53
2021/12/18 02:58:46;;;;;;;20.73;13.73;;;4.70;99.90;;;;;;5000917;28;20675;-50
2021/12/18 03:01:21;;;;;;;19.60;13.93;;;4.70;99.90;;;;;;5032109;28;20192;-51
2021/12/18 03:03:47;;;;;;;20.70;14.30;;;4.70;99.90;;;;;;5032828;28;20251;-52
2021/12/18 03:08:54;;;;;;;19.70;13.43;;;4.60;99.90;;;;;;5020047;28;20264;-54
2021/12/18 03:25:20;;;;;;;20.13;14.10;;;4.50;99.90;;;;;;5012609;28;20230;-50
2021/12/18 03:27:46;;;;;;;20.00;13.23;;;4.40;99.90;;;;;;5012415;28;20259;-50
2021/12/18 03:30:12;;;;;;;19.13;13.47;;;4.40;99.90;;;;;;5012799;28;20327;-51
2021/12/18 03:32:38;;;;;;;19.93;14.23;;;4.50;99.90;;;;;;5012294;28;20192;-51
2021/12/18 03:35:06;;;;;;;19.13;13.23;;;4.40;99.90;;;;;;5010979;28;20180;-52
2021/12/18 03:37:34;;;;;;;18.90;12.97;;;4.40;99.90;;;;;;5012597;28;20176;-51
2021/12/18 03:40:00;;;;;;;18.70;13.13;;;4.40;99.90;;;;;;5012191;28;20168;-54
2021/12/18 03:42:25;;;;;;;18.57;13.50;;;4.50;99.90;;;;;;5012336;28;20688;-50
2021/12/18 03:44:51;;;;;;;18.53;13.23;;;4.60;99.90;;;;;;5011848;28;20169;-51
2021/12/18 03:47:17;;;;;;;17.53;13.17;;;4.70;99.90;;;;;;5012389;28;20200;-50
2021/12/18 03:49:42;;;;;;;17.13;12.90;;;4.90;99.90;;;;;;5012192;28;20168;-50
2021/12/18 03:52:08;;;;;;;19.17;12.83;;;5.00;99.90;;;;;;5012187;28;20206;-50
2021/12/18 03:54:33;;;;;;;18.57;13.07;;;5.10;99.90;;;;;;5012252;28;20179;-50
2021/12/18 03:56:59;;;;;;;20.10;13.27;;;5.10;99.90;;;;;;5011839;28;20183;-51
2021/12/18 03:59:25;;;;;;;16.67;12.00;;;5.10;99.90;;;;;;5012203;28;20204;-51
2021/12/18 04:01:51;;;;;;;19.00;12.80;;;4.90;99.90;;;;;;5011669;28;20204;-50
2021/12/18 04:04:16;;;;;;;17.63;12.33;;;4.80;99.90;;;;;;5012370;28;20172;-51
2021/12/18 04:06:43;;;;;;;16.17;11.60;;;4.70;99.90;;;;;;5011727;28;20197;-50
2021/12/18 04:09:11;;;;;;;15.70;11.57;;;4.70;99.90;;;;;;5012135;28;20655;-50
2021/12/18 04:11:37;;;;;;;16.43;12.27;;;4.70;99.90;;;;;;5011793;28;20680;-52
2021/12/18 04:14:03;;;;;;;16.40;11.77;;;4.50;99.90;;;;;;5011609;28;20160;-51
2021/12/18 04:16:29;;;;;;;15.77;11.97;;;4.40;99.90;;;;;;5011744;28;20173;-51
2021/12/18 04:18:55;;;;;;;15.90;11.87;;;4.30;99.90;;;;;;5011795;28;20173;-50
2021/12/18 04:21:20;;;;;;;17.10;12.10;;;4.30;99.90;;;;;;5011866;28;20196;-52
2021/12/18 04:23:46;;;;;;;15.77;12.40;;;4.30;99.90;;;;;;5011456;28;20270;-52
2021/12/18 04:26:12;;;;;;;16.03;12.20;;;4.50;99.90;;;;;;5011573;28;20176;-50
2021/12/18 04:28:37;;;;;;;14.57;11.43;;;4.60;99.90;;;;;;5011779;28;20639;-53
2021/12/18 04:31:03;;;;;;;14.87;10.90;;;4.70;99.90;;;;;;5010412;28;20790;-50
2021/12/18 04:33:29;;;;;;;16.33;11.67;;;4.70;99.90;;;;;;5010572;28;20231;-51
2021/12/18 04:35:54;;;;;;;14.70;11.57;;;4.80;99.90;;;;;;5011217;28;20176;-52
2021/12/18 04:38:20;;;;;;;14.50;10.90;;;4.90;99.90;;;;;;5011781;28;20683;-51
2021/12/18 04:40:45;;;;;;;14.40;10.87;;;5.00;99.90;;;;;;5011411;28;20235;-50
2021/12/18 04:43:11;;;;;;;14.90;11.00;;;5.00;99.90;;;;;;5010350;28;20286;-51
2021/12/18 04:45:37;;;;;;;15.10;11.07;;;5.00;99.90;;;;;;5011252;28;20175;-52
2021/12/18 04:48:03;;;;;;;13.57;10.80;;;4.90;99.90;;;;;;5011613;28;20200;-47
2021/12/18 04:50:28;;;;;;;13.90;10.70;;;4.80;99.90;;;;;;5011711;28;20227;-50
2021/12/18 04:52:54;;;;;;;14.97;10.97;;;4.50;99.90;;;;;;5011613;28;20192;-53
2021/12/18 04:55:20;;;;;;;14.47;11.43;;;4.40;99.90;;;;;;5011352;28;20172;-50
2021/12/18 04:57:45;;;;;;;15.30;11.33;;;4.60;99.90;;;;;;5011252;28;20173;-52
2021/12/18 05:00:15;;;;;;;13.53;10.47;;;4.70;99.90;;;;;;5011596;28;20168;-51
2021/12/18 05:02:43;;;;;;;13.33;10.13;;;4.90;99.90;;;;;;5007259;28;20197;-50
2021/12/18 05:05:13;;;;;;;11.63;8.70;;;4.90;99.90;;;;;;5010489;28;20172;-51
2021/12/18 05:07:42;;;;;;;12.07;9.07;;;5.00;99.90;;;;;;5011430;28;20649;-50
2021/12/18 05:10:10;;;;;;;13.00;9.30;;;4.90;99.90;;;;;;4993675;28;20214;-54
2021/12/18 05:12:37;;;;;;;12.77;9.43;;;4.90;99.90;;;;;;5011321;28;20196;-50
2021/12/18 05:15:04;;;;;;;11.43;9.77;;;4.90;99.90;;;;;;5010940;28;20311;-50
2021/12/18 05:17:29;;;;;;;12.87;10.23;;;5.00;99.90;;;;;;5011335;28;20180;-50
2021/12/18 05:19:55;;;;;;;13.03;10.53;;;5.10;99.90;;;;;;5011239;28;20181;-54
2021/12/18 05:22:20;;;;;;;14.70;10.87;;;5.10;99.90;;;;;;5011080;28;20306;-50
2021/12/18 05:24:46;;;;;;;14.80;10.90;;;5.10;99.90;;;;;;5011716;28;20188;-50
2021/12/18 05:27:11;;;;;;;15.07;10.33;;;5.10;99.90;;;;;;5014591;28;20172;-53
2021/12/18 05:29:37;;;;;;;13.47;11.07;;;5.00;99.90;;;;;;5014914;28;20200;-50
2021/12/18 05:32:03;;;;;;;13.23;9.40;;;4.90;99.90;;;;;;5014550;28;20224;-51
2021/12/18 05:34:36;;;;;;;12.50;10.50;;;4.90;99.90;;;;;;5014020;28;20615;-53
2021/12/18 05:37:16;;;;;;;11.60;9.67;;;5.80;99.90;;;;;;5015960;28;20187;-50
2021/12/18 05:39:41;;;;;;;11.93;10.03;;;5.10;99.90;;;;;;5023555;28;20535;-50
2021/12/18 05:42:07;;;;;;;12.23;10.00;;;5.20;99.90;;;;;;5023416;28;20257;-50
2021/12/18 05:44:33;;;;;;;12.70;10.13;;;5.20;99.90;;;;;;5005996;28;20660;-50
2021/12/18 05:46:59;;;;;;;14.00;10.83;;;5.30;99.90;;;;;;5034220;28;20263;-52
2021/12/18 05:49:24;;;;;;;13.50;11.00;;;5.40;99.90;;;;;;5023315;28;20263;-50
2021/12/18 05:51:50;;;;;;;14.97;10.90;;;5.40;99.90;;;;;;5014711;28;20200;-50
2021/12/18 05:54:16;;;;;;;13.13;10.67;;;5.50;99.90;;;;;;5014490;28;20169;-49
2021/12/18 05:56:42;;;;;;;13.00;10.13;;;5.50;99.90;;;;;;5026123;28;20535;-50
2021/12/18 05:59:08;;;;;;;12.23;10.27;;;5.60;99.90;;;;;;5028068;28;20226;-53
2021/12/18 06:01:34;;;;;;;13.00;10.50;;;5.60;99.90;;;;;;5033638;28;20643;-49
2021/12/18 06:04:00;;;;;;;14.20;10.77;;;5.60;99.90;;;;;;5034067;28;20532;-54
2021/12/18 06:06:26;;;;;;;13.93;11.40;;;5.60;99.90;;;;;;5022830;28;20172;-52
2021/12/18 06:08:52;;;;;;;12.27;10.30;;;5.60;99.90;;;;;;5014383;28;20172;-51
2021/12/18 06:11:21;;;;;;;12.97;10.53;;;5.60;99.90;;;;;;5013789;28;20180;-50
2021/12/18 06:13:51;;;;;;;12.67;10.20;;;5.60;99.90;;;;;;5013984;28;20255;-54
2021/12/18 06:16:19;;;;;;;12.07;10.00;;;5.70;99.90;;;;;;5013512;28;20177;-50
2021/12/18 06:18:49;;;;;;;12.60;9.70;;;5.60;99.90;;;;;;5015014;28;20274;-50
2021/12/18 06:21:16;;;;;;;11.80;9.83;;;5.60;99.90;;;;;;5014001;28;20658;-49
2021/12/18 06:23:43;;;;;;;14.47;11.27;;;5.60;99.90;;;;;;5013557;28;20211;-51
2021/12/18 06:26:09;;;;;;;13.33;10.63;;;5.60;99.90;;;;;;5013555;28;20218;-52
2021/12/18 06:28:34;;;;;;;13.87;10.77;;;5.60;99.90;;;;;;5013423;28;20181;-50
2021/12/18 06:31:01;;;;;;;15.33;12.40;;;5.60;99.90;;;;;;5013600;28;20238;-50
2021/12/18 06:33:27;;;;;;;14.60;11.60;;;5.60;99.90;;;;;;5013482;28;20806;-50
2021/12/18 06:35:53;;;;;;;16.77;12.57;;;5.50;99.90;;;;;;5012762;28;20277;-49
2021/12/18 06:38:19;;;;;;;14.83;11.50;;;5.50;99.90;;;;;;5025417;28;20190;-52
2021/12/18 06:40:44;;;;;;;15.97;12.40;;;5.40;99.90;;;;;;5015314;28;20175;-54
2021/12/18 06:43:10;;;;;;;16.40;13.33;;;5.30;99.90;;;;;;5033050;28;20245;-49
2021/12/18 06:45:35;;;;;;;15.30;12.13;;;5.30;99.90;;;;;;5032612;28;20267;-50
2021/12/18 06:48:01;;;;;;;17.17;11.80;;;5.20;99.90;;;;;;5033250;28;20187;-50
2021/12/18 06:50:27;;;;;;;17.63;14.03;;;5.10;99.90;;;;;;5033207;28;20179;-51
2021/12/18 06:52:53;;;;;;;16.67;12.33;;;5.10;99.90;;;;;;5032944;28;20563;-52
2021/12/18 06:55:20;;;;;;;20.93;17.07;;;5.10;99.90;;;;;;5032725;28;20199;-50
2021/12/18 06:57:46;;;;;;;15.90;11.50;;;5.20;99.90;;;;;;5032508;28;20262;-51
2021/12/18 07:00:13;;;;;;;15.60;11.37;;;5.10;99.90;;;;;;5032711;28;20183;-51
2021/12/18 07:02:40;;;;;;;13.77;10.67;;;5.10;99.90;;;;;;5014663;28;20234;-51
2021/12/18 07:05:07;;;;;;;13.53;10.50;;;5.10;99.90;;;;;;5032723;28;20225;-53
2021/12/18 07:07:32;;;;;;;12.80;9.77;;;5.10;99.90;;;;;;5032669;28;20171;-52
2021/12/18 07:09:58;;;;;;;14.30;10.97;;;5.20;99.90;;;;;;5032728;28;20576;-54
2021/12/18 07:12:24;;;;;;;14.30;11.13;;;5.20;99.90;;;;;;5032488;28;20203;-54
2021/12/18 07:14:49;;;;;;;16.90;11.40;;;5.20;99.90;;;;;;5032021;28;20176;-50
2021/12/18 07:17:15;;;;;;;15.63;11.80;;;5.20;99.90;;;;;;5032539;28;20184;-50
2021/12/18 07:19:40;;;;;;;15.47;12.20;;;5.30;99.90;;;;;;5032236;28;20176;-50
2021/12/18 07:22:06;;;;;;;15.57;12.00;;;5.30;99.90;;;;;;5032240;28;20205;-51
2021/12/18 07:24:32;;;;;;;16.43;12.07;;;5.20;99.90;;;;;;5032373;28;20175;-48
2021/12/18 07:26:58;;;;;;;77.10;57.70;;;5.30;99.90;;;;;;5031910;28;20545;-50
2021/12/18 07:29:24;;;;;;;18.10;13.03;;;5.30;99.90;;;;;;5032248;28;20203;-53
2021/12/18 07:31:50;;;;;;;17.00;12.97;;;5.40;99.90;;;;;;5032043;28;20199;-54
2021/12/18 07:34:16;;;;;;;15.23;11.40;;;5.30;99.90;;;;;;5032461;28;20557;-51
2021/12/18 07:36:41;;;;;;;15.27;12.37;;;5.40;99.90;;;;;;5031612;28;20176;-50
2021/12/18 07:39:07;;;;;;;13.60;10.60;;;5.50;99.90;;;;;;5013439;28;20248;-50
2021/12/18 07:41:33;;;;;;;21.30;15.80;;;5.50;99.90;;;;;;5012538;28;20213;-50
2021/12/18 07:43:59;;;;;;;57.70;42.00;;;5.50;99.90;;;;;;5011678;28;20252;-52
2021/12/18 07:46:24;;;;;;;22.73;17.80;;;5.40;99.90;;;;;;5012077;28;20173;-55
2021/12/18 07:48:50;;;;;;;20.13;13.93;;;5.40;99.90;;;;;;5011663;28;20179;-50
2021/12/18 07:51:16;;;;;;;15.67;12.20;;;5.30;99.90;;;;;;5012159;28;20176;-53
2021/12/18 07:53:41;;;;;;;15.50;12.47;;;5.30;99.90;;;;;;5010704;28;20215;-52
2021/12/18 07:56:09;;;;;;;39.20;29.03;;;5.30;99.90;;;;;;5011875;28;20215;-52
2021/12/18 07:58:35;;;;;;;26.73;19.43;;;5.30;99.90;;;;;;5015611;28;20696;-50
2021/12/18 08:01:02;;;;;;;37.53;27.23;;;5.40;99.90;;;;;;5025434;28;20203;-50
2021/12/18 08:03:27;;;;;;;17.70;12.73;;;5.40;99.90;;;;;;5013949;28;20258;-50
2021/12/18 08:05:53;;;;;;;17.57;13.27;;;5.40;99.90;;;;;;5031277;28;20592;-50
2021/12/18 08:08:18;;;;;;;15.57;10.57;;;5.30;99.90;;;;;;5031772;28;20656;-52
2021/12/18 08:10:44;;;;;;;15.17;10.77;;;5.30;99.90;;;;;;5013866;28;20176;-51
2021/12/18 08:13:10;;;;;;;15.20;11.43;;;5.20;99.90;;;;;;5031293;28;20262;-50
2021/12/18 08:15:35;;;;;;;15.13;11.77;;;5.30;99.90;;;;;;5031239;28;20179;-55
2021/12/18 08:18:06;;;;;;;16.43;12.30;;;5.40;99.90;;;;;;5032012;28;20589;-52
2021/12/18 08:20:32;;;;;;;14.80;11.90;;;5.50;99.90;;;;;;5032128;28;20259;-51
2021/12/18 08:22:58;;;;;;;16.70;12.00;;;5.60;99.90;;;;;;5031508;28;20219;-48
2021/12/18 08:25:23;;;;;;;16.20;12.10;;;5.70;99.90;;;;;;5013462;28;20172;-49
2021/12/18 08:27:49;;;;;;;15.00;11.57;;;5.70;99.90;;;;;;5013569;28;20685;-53
2021/12/18 08:30:14;;;;;;;15.17;11.43;;;5.70;99.90;;;;;;5013959;28;20544;-50
2021/12/18 08:32:40;;;;;;;15.77;11.33;;;5.70;99.90;;;;;;5013584;28;20204;-51
2021/12/18 08:35:07;;;;;;;14.67;12.47;;;5.80;99.90;;;;;;5031112;28;20203;-51
2021/12/18 08:37:33;;;;;;;16.40;13.00;;;5.80;99.90;;;;;;5031145;28;20179;-52
2021/12/18 08:39:58;;;;;;;16.87;12.50;;;5.80;99.90;;;;;;5013367;28;20589;-50
2021/12/18 08:42:24;;;;;;;19.40;13.00;;;5.90;99.90;;;;;;5031023;28;20215;-53
2021/12/18 08:44:50;;;;;;;17.93;13.27;;;5.90;99.90;;;;;;5031102;28;20176;-50
2021/12/18 08:47:17;;;;;;;16.97;12.37;;;5.90;99.90;;;;;;4994647;28;20176;-50
2021/12/18 08:49:43;;;;;;;16.53;12.73;;;6.00;99.90;;;;;;5011527;28;20177;-50
2021/12/18 08:52:08;;;;;;;19.27;13.53;;;6.00;99.90;;;;;;5011460;28;20229;-48
2021/12/18 08:54:34;;;;;;;15.77;12.43;;;6.10;99.90;;;;;;5011383;28;20204;-52
2021/12/18 08:57:00;;;;;;;15.47;12.03;;;6.10;99.90;;;;;;5010931;28;20179;-50
2021/12/18 08:59:25;;;;;;;16.17;12.20;;;6.10;99.90;;;;;;5011526;28;20177;-50
2021/12/18 09:01:51;;;;;;;15.93;12.57;;;6.10;99.90;;;;;;5015167;28;20250;-50
2021/12/18 09:04:17;;;;;;;16.43;11.67;;;6.20;99.90;;;;;;5015531;28;20199;-52
2021/12/18 09:06:42;;;;;;;16.57;13.13;;;6.30;99.90;;;;;;5014940;28;20168;-51
2021/12/18 09:09:08;;;;;;;17.47;13.60;;;6.30;99.90;;;;;;5015298;28;20168;-54
2021/12/18 09:11:33;;;;;;;18.73;13.07;;;6.40;99.90;;;;;;5015103;28;20632;-50
2021/12/18 09:14:02;;;;;;;15.87;12.43;;;6.40;99.90;;;;;;5015211;28;20173;-52
2021/12/18 09:16:28;;;;;;;16.57;12.93;;;6.40;99.90;;;;;;5014829;28;20177;-50
2021/12/18 09:18:53;;;;;;;15.87;12.00;;;6.40;99.90;;;;;;5015032;28;20219;-52
2021/12/18 09:21:21;;;;;;;18.10;13.27;;;6.40;99.90;;;;;;5014840;28;20603;-50
2021/12/18 09:23:47;;;;;;;18.33;12.90;;;6.40;99.90;;;;;;5020927;28;20187;-51
2021/12/18 09:26:12;;;;;;;18.63;13.57;;;6.30;99.90;;;;;;5024592;28;20250;-50
2021/12/18 09:28:38;;;;;;;16.10;12.90;;;6.30;99.90;;;;;;5023294;28;20629;-53
2021/12/18 09:31:04;;;;;;;16.43;12.33;;;6.30;99.90;;;;;;5017068;28;20258;-51
2021/12/18 09:33:29;;;;;;;17.67;13.63;;;6.30;99.90;;;;;;5014698;28;20204;-52
2021/12/18 09:35:55;;;;;;;21.70;16.30;;;6.30;99.90;;;;;;5014378;28;20179;-50
2021/12/18 09:38:20;;;;;;;31.00;23.43;;;6.40;99.90;;;;;;5016054;28;20193;-51
2021/12/18 09:40:46;;;;;;;24.67;18.87;;;6.40;99.90;;;;;;5003280;28;20271;-51
2021/12/18 09:43:12;;;;;;;20.87;15.47;;;6.40;99.90;;;;;;5016176;28;20546;-49
2021/12/18 09:45:37;;;;;;;20.40;14.47;;;6.40;99.90;;;;;;5023072;28;20180;-50
2021/12/18 09:48:05;;;;;;;25.47;18.83;;;6.40;99.90;;;;;;5022306;28;20293;-53
2021/12/18 09:50:34;;;;;;;20.57;15.10;;;6.40;99.90;;;;;;5019923;28;20638;-50
2021/12/18 09:53:00;;;;;;;18.53;13.73;;;6.50;99.90;;;;;;5022356;28;20191;-51
2021/12/18 09:55:25;;;;;;;17.43;12.97;;;6.40;99.90;;;;;;5006032;28;20589;-52
2021/12/18 09:57:51;;;;;;;17.33;12.57;;;6.50;99.90;;;;;;5022025;28;20175;-52
2021/12/18 10:00:21;;;;;;;18.77;13.10;;;6.30;99.90;;;;;;5027960;28;20176;-52
2021/12/18 10:02:46;;;;;;;17.27;12.43;;;6.10;99.90;;;;;;5033819;28;20207;-50
2021/12/18 10:05:38;;;;;;;17.67;12.83;;;6.00;99.90;;;;;;5024771;28;20168;-50
2021/12/18 10:08:14;;;;;;;19.10;14.07;;;5.90;99.90;;;;;;5019899;28;20187;-50
2021/12/18 10:10:57;;;;;;;16.50;12.87;;;6.00;99.90;;;;;;5020500;28;20207;-53
2021/12/18 10:13:23;;;;;;;20.03;13.03;;;6.10;99.90;;;;;;5021599;28;20199;-50
2021/12/18 10:16:10;;;;;;;17.97;12.60;;;6.10;99.90;;;;;;5022395;28;20176;-50
2021/12/18 10:18:36;;;;;;;16.87;12.70;;;6.20;99.90;;;;;;5024420;28;20259;-51
2021/12/18 10:21:12;;;;;;;16.87;12.93;;;6.20;99.90;;;;;;5022777;28;20255;-53
2021/12/18 10:23:39;;;;;;;19.37;13.10;;;6.30;99.90;;;;;;5019651;28;20208;-53
2021/12/18 10:26:05;;;;;;;17.70;12.77;;;6.30;99.90;;;;;;5022721;28;20279;-52
2021/12/18 10:28:45;;;;;;;18.17;12.37;;;6.40;99.90;;;;;;5023940;28;20196;-51
2021/12/18 10:31:10;;;;;;;19.93;15.00;;;6.40;99.90;;;;;;5023048;28;20526;-55
2021/12/18 10:33:36;;;;;;;23.87;16.77;;;6.50;99.90;;;;;;5022165;28;20254;-54
2021/12/18 10:36:03;;;;;;;20.83;14.17;;;6.50;99.90;;;;;;5023112;28;20176;-57
2021/12/18 10:38:48;;;;;;;17.60;13.33;;;6.50;99.90;;;;;;5021155;28;20271;-51
2021/12/18 10:41:22;;;;;;;17.77;13.00;;;6.50;99.90;;;;;;5019470;28;20204;-50
2021/12/18 10:44:00;;;;;;;17.37;11.93;;;6.50;99.90;;;;;;5022343;28;20648;-53
2021/12/18 10:46:27;;;;;;;16.40;12.00;;;6.40;99.90;;;;;;5021457;28;20175;-51
2021/12/18 10:48:58;;;;;;;19.40;13.53;;;6.40;99.90;;;;;;5021731;28;20652;-52
2021/12/18 10:51:25;;;;;;;16.23;11.73;;;6.40;99.90;;;;;;5023496;28;20181;-55
2021/12/18 10:53:50;;;;;;;15.13;11.43;;;6.50;99.90;;;;;;5021749;28;20183;-50
2021/12/18 10:56:29;;;;;;;16.07;12.83;;;6.50;99.90;;;;;;5022975;28;20206;-50
2021/12/18 10:58:55;;;;;;;17.50;12.67;;;6.50;99.90;;;;;;5023464;28;20184;-54
2021/12/18 11:01:21;;;;;;;17.77;13.80;;;6.60;99.90;;;;;;5021901;28;20255;-50
2021/12/18 11:03:51;;;;;;;16.53;12.50;;;6.60;99.90;;;;;;5022172;28;20679;-52
2021/12/18 11:06:28;;;;;;;17.43;12.80;;;6.70;99.90;;;;;;5022956;28;20172;-52
2021/12/18 11:09:07;;;;;;;17.67;13.43;;;6.80;99.90;;;;;;5005966;28;20175;-51
2021/12/18 11:14:11;;;;;;;16.40;12.63;;;6.80;99.90;;;;;;5022664;28;20181;-50
2021/12/18 11:16:39;;;;;;;13.27;10.70;;;6.80;99.90;;;;;;5018249;28;20188;-50
2021/12/18 11:19:13;;;;;;;15.50;11.73;;;6.50;99.90;;;;;;5022454;28;20419;-51
2021/12/18 11:21:43;;;;;;;14.87;11.47;;;6.50;99.90;;;;;;5018491;28;20747;-48
2021/12/18 11:24:10;;;;;;;15.80;11.73;;;6.50;99.90;;;;;;5003382;28;20187;-54
2021/12/18 11:26:41;;;;;;;14.73;11.50;;;6.50;99.90;;;;;;5022647;28;20207;-50
2021/12/18 11:29:25;;;;;;;16.77;11.53;;;6.50;99.90;;;;;;5022212;28;20223;-50
2021/12/18 11:31:51;;;;;;;14.33;10.57;;;6.40;99.90;;;;;;5022254;28;20257;-49
2021/12/18 11:34:17;;;;;;;13.10;10.37;;;6.20;99.90;;;;;;5020761;28;20642;-51
2021/12/18 11:36:47;;;;;;;11.90;9.80;;;5.70;99.90;;;;;;5021944;28;20187;-50
2021/12/18 11:39:14;;;;;;;12.33;9.73;;;5.10;99.90;;;;;;5004991;28;20641;-48
2021/12/18 11:41:40;;;;;;;13.67;10.57;;;4.80;99.90;;;;;;5021034;28;20208;-49
2021/12/18 11:44:25;;;;;;;12.47;9.87;;;4.80;99.90;;;;;;4995970;28;20211;-50
2021/12/18 11:46:50;;;;;;;12.67;9.73;;;4.70;99.90;;;;;;5012198;28;20177;-52
2021/12/18 11:49:16;;;;;;;18.43;14.07;;;4.60;99.90;;;;;;5012194;28;20177;-50
2021/12/18 11:51:58;;;;;;;11.57;9.03;;;4.80;99.90;;;;;;5011915;28;20207;-51
2021/12/18 11:54:49;;;;;;;15.17;12.77;;;4.80;99.90;;;;;;5012305;28;20549;-51
2021/12/18 11:57:35;;;;;;;14.50;9.80;;;4.70;99.90;;;;;;5011717;28;20645;-51
2021/12/18 12:00:01;;;;;;;11.93;9.37;;;4.70;99.90;;;;;;4991873;28;20177;-52
2021/12/18 12:02:45;;;;;;;13.27;10.03;;;4.80;99.90;;;;;;4991713;28;20221;-50
2021/12/18 12:05:11;;;;;;;12.80;9.90;;;5.10;99.90;;;;;;4992041;28;20177;-50
2021/12/18 12:07:37;;;;;;;12.73;10.47;;;5.30;99.90;;;;;;4991990;28;20674;-51
2021/12/18 12:10:21;;;;;;;10.90;9.20;;;5.30;99.90;;;;;;4974771;28;20585;-51
2021/12/18 12:12:53;;;;;;;13.93;10.87;;;5.40;99.90;;;;;;4991675;28;20204;-49
2021/12/18 12:15:23;;;;;;;12.20;10.10;;;5.40;99.90;;;;;;4999636;28;20184;-53
2021/12/18 12:17:56;;;;;;;12.60;10.07;;;5.50;99.90;;;;;;5010463;28;20705;-53
2021/12/18 12:20:43;;;;;;;13.40;10.50;;;5.60;99.90;;;;;;5013300;28;20168;-52
2021/12/18 12:23:10;;;;;;;12.00;9.57;;;5.60;99.90;;;;;;5011475;28;20274;-51
2021/12/18 12:25:45;;;;;;;13.80;10.73;;;5.60;99.90;;;;;;5011375;28;20519;-50
2021/12/18 12:28:22;;;;;;;14.13;11.10;;;5.60;99.90;;;;;;5011811;28;20191;-51
2021/12/18 12:31:00;;;;;;;12.80;10.57;;;5.40;99.90;;;;;;5011608;28;20173;-53
2021/12/18 12:33:32;;;;;;;12.03;10.20;;;5.40;99.90;;;;;;5011717;28;20242;-50
2021/12/18 12:36:12;;;;;;;13.13;10.37;;;5.50;99.90;;;;;;5015394;28;20190;-52
2021/12/18 12:38:39;;;;;;;12.13;10.23;;;5.50;99.90;;;;;;5014637;28;20172;-52
2021/12/18 12:41:25;;;;;;;14.13;10.90;;;5.60;99.90;;;;;;5015336;28;20634;-50
2021/12/18 12:43:52;;;;;;;13.83;10.97;;;5.50;99.90;;;;;;5015548;28;20191;-49
2021/12/18 12:46:19;;;;;;;12.93;10.53;;;5.40;99.90;;;;;;5014627;28;20176;-52
2021/12/18 12:49:08;;;;;;;14.67;11.67;;;5.20;99.90;;;;;;5032212;28;20293;-50
2021/12/18 12:51:59;;;;;;;14.60;10.60;;;5.00;99.90;;;;;;5025251;28;20222;-53
2021/12/18 12:54:43;;;;;;;13.43;10.47;;;4.70;99.90;;;;;;5024727;28;20203;-53
2021/12/18 12:57:24;;;;;;;13.23;9.70;;;4.40;99.90;;;;;;5024094;28;20169;-50
2021/12/18 12:59:52;;;;;;;12.63;9.97;;;4.40;99.90;;;;;;5024541;28;20195;-49
2021/12/18 13:02:18;;;;;;;10.27;9.17;;;4.40;99.90;;;;;;5020833;28;20345;-50
2021/12/18 13:04:44;;;;;;;12.27;10.03;;;4.40;99.90;;;;;;5023519;28;20536;-50
2021/12/18 13:07:10;;;;;;;12.47;9.43;;;4.70;99.90;;;;;;5024634;28;20184;-52
2021/12/18 13:09:44;;;;;;;11.83;9.93;;;4.80;99.90;;;;;;5022825;28;20222;-51
2021/12/18 13:12:10;;;;;;;13.63;10.17;;;4.80;99.90;;;;;;5023997;28;20215;-52
2021/12/18 13:14:41;;;;;;;13.87;10.93;;;5.00;99.90;;;;;;5025426;28;20649;-53
2021/12/18 13:17:24;;;;;;;14.53;11.30;;;5.00;99.90;;;;;;5024643;28;20208;-53
2021/12/18 13:20:05;;;;;;;13.57;11.07;;;5.10;99.90;;;;;;5023874;28;20200;-54
2021/12/18 13:22:33;;;;;;;14.57;11.60;;;5.20;99.90;;;;;;5024179;28;20274;-53
2021/12/18 13:25:10;;;;;;;14.87;10.53;;;5.10;99.90;;;;;;5020724;28;20255;-53
2021/12/18 13:27:38;;;;;;;13.50;10.10;;;5.10;99.90;;;;;;5023199;28;20653;-50
2021/12/18 13:30:21;;;;;;;14.27;10.80;;;5.00;99.90;;;;;;5024735;28;20637;-52
2021/12/18 13:33:05;;;;;;;12.07;9.87;;;4.90;99.90;;;;;;5022777;28;20215;-52
2021/12/18 13:35:33;;;;;;;13.70;10.47;;;5.10;99.90;;;;;;5023790;28;20168;-50